Emmitsburg, MD (21727)

2:56 AM EST on February 09, 2016 (GMT -0500)
MVC | | Change Station
CLOSE
Current Station
Personal Weather Station
Location: Emmitsburg, MD
Elevation: 453 ft
Nearby Weather Stations
Active Advisory: Winter Weather Advisory

Elev 453 ft 39.68 °N, 77.33 °W | Updated 1 second ago

Snow
Snow
33.8 °F
Feels Like 34 °F
N
0.0
Wind Variable Wind from SE
Gusts 0.0 mph

Today
High -- | Low -- °F
--% Chance of Precip.
Yesterday
High -- | Low -- °F
Precip. -- in
Pressure 29.60 in
Visibility 1.2 miles
Clouds Overcast 400 ft
Windchill 34 °F
Dew Point 32 °F
Humidity 92%
Rainfall 0.00 in
Snow Depth Not available.
7:09 AM 5:38 PM
New Moon, 1% visible
METAR KRYT 090653Z AUTO 00000KT 1 1/4SM -SN BR OVC004 01/M01 A2956 RMK AO2 RAE12SNB12 SLP023 P0000 T00061006 $
Pressure 29.60 in
Visibility 1.2 miles
Clouds Overcast 400 ft
Windchill 34 °F
Dew Point 32 °F
Humidity 92%
Rainfall 0.00 in
Snow Depth Not available.
7:09 AM 5:38 PM
New Moon, 1% visible
METAR KRYT 090653Z AUTO 00000KT 1 1/4SM -SN BR OVC004 01/M01 A2956 RMK AO2 RAE12SNB12 SLP023 P0000 T00061006 $

10-Day Weather Forecast

Almanac

Astronomy

Feb. 09, 2016 Rise Set
Actual Time
Civil Twilight
Nautical Twilight
Astronomical Twilight
Moon
Length of Visible Light
Length of Day
Tomorrow will be .
, % of the Moon is Illuminated

Today's Extremes

State Highs State Lows

Community

WunderPhotos

Upload Photos

1,891,571 photos uploaded!

WunderBlog® & News

Nearby

Air Quality

  Air Quality AQ Index Pollutant
Not available.

Snow Depth

Station Depth Elevation

Earthquake Activity

City Distance Mag. Time & Date
Minimum magnitude displayed is 2.5.

Coastal Water Temperatures

Place Temperature

Stations

Nearby Weather Stations

Station Location Temp. Windchill Dew Point Humidity Wind Precip. Elev Updated Type
                   

Watches & Warnings

Winter Weather Advisory
Issued: 2:44 AM EST Feb. 9, 2016 – National Weather Service

... Winter Weather Advisory in effect until midnight EST tonight...
... Winter Storm Warning is cancelled...

The National Weather Service in Baltimore MD/Washington has
issued a Winter Weather Advisory for snow... which is in effect
until midnight EST tonight. The Winter Storm Warning has been
cancelled.

* Precipitation type... snow.

* Accumulations... snow accumulation of 2 to 5 inches... except 1
to 3 inches in Anne Arundel County.

* Timing... light rain early this morning is expected to
transition to all snow around daybreak. The snow will continue
into the afternoon... with periods of heavier snow possible
mainly near the Mason Dixon line.

* Impacts... snow covered roads and travel disruptions possible.

* Winds... east 5 to 10 mph becoming north this afternoon.

* Temperatures... lower 30s.

Precautionary/preparedness actions...

A Winter Weather Advisory for snow means that periods of snow
will cause primarily travel difficulties. Be prepared for snow
covered roads and limited visibilities... and use caution while
driving.